createdAt,value
2023-05-10T00:05:16.687Z,48.78
2023-05-10T00:10:42.280Z,49.09
2023-05-10T00:16:08.567Z,49.36
2023-05-10T00:21:34.371Z,49.63
2023-05-10T00:27:00.154Z,49.78
2023-05-10T00:32:26.484Z,50.24
2023-05-10T00:37:52.228Z,50.34
2023-05-10T00:43:18.128Z,50.75
2023-05-10T00:48:45.227Z,51.10
2023-05-10T00:54:12.060Z,51.14
2023-05-10T00:59:38.718Z,51.68
2023-05-10T01:05:07.322Z,51.71
2023-05-10T01:10:33.543Z,51.92
2023-05-10T01:16:00.226Z,52.41
2023-05-10T01:21:44.854Z,52.37
2023-05-10T01:27:41.462Z,52.52
2023-05-10T01:33:16.470Z,52.73
2023-05-10T01:38:50.703Z,53.15
2023-05-10T01:44:23.503Z,53.43
2023-05-10T01:49:58.519Z,53.55
2023-05-10T01:55:28.288Z,53.99
2023-05-10T02:00:56.580Z,53.72
2023-05-10T02:06:23.316Z,54.07
2023-05-10T02:11:51.163Z,54.11
2023-05-10T02:17:19.882Z,54.06
2023-05-10T02:22:47.983Z,54.31
2023-05-10T02:28:18.949Z,55.00
2023-05-10T02:33:45.985Z,54.74
2023-05-10T02:39:13.582Z,54.84
2023-05-10T02:44:35.040Z,55.16
2023-05-10T02:50:00.843Z,55.03
2023-05-10T02:55:31.793Z,55.13
2023-05-10T03:00:57.649Z,55.01
2023-05-10T03:06:23.775Z,54.99
2023-05-10T03:12:05.256Z,55.25
2023-05-10T03:17:47.036Z,55.54
2023-05-10T03:23:17.053Z,55.30
2023-05-10T03:28:46.342Z,55.73
2023-05-10T03:34:13.619Z,55.75
2023-05-10T03:39:39.337Z,56.10
2023-05-10T03:45:05.081Z,56.09
2023-05-10T03:50:31.768Z,55.96
2023-05-10T03:55:57.420Z,56.14
2023-05-10T04:01:23.217Z,56.31
2023-05-10T04:06:48.815Z,56.14
2023-05-10T04:12:14.379Z,56.56
2023-05-10T04:17:40.020Z,56.38
2023-05-10T04:23:05.974Z,56.32
2023-05-10T04:28:31.582Z,56.41
2023-05-10T04:33:59.071Z,56.39
2023-05-10T04:39:25.733Z,55.72
2023-05-10T04:44:51.714Z,54.17
2023-05-10T04:50:17.529Z,53.56
2023-05-10T04:55:43.549Z,52.84
2023-05-10T05:01:09.439Z,51.84
2023-05-10T05:06:58.030Z,51.30
2023-05-10T05:12:21.750Z,51.28
2023-05-10T05:17:47.505Z,50.40
2023-05-10T05:23:13.305Z,49.87
2023-05-10T05:28:39.893Z,49.74
2023-05-10T05:34:05.609Z,49.44
2023-05-10T05:39:31.333Z,49.48
2023-05-10T05:44:57.470Z,48.76
2023-05-10T05:50:23.508Z,48.24
2023-05-10T05:55:40.188Z,47.92
2023-05-10T06:01:05.970Z,47.63
2023-05-10T06:06:25.460Z,47.73
2023-05-10T06:11:51.318Z,47.75
2023-05-10T06:17:17.353Z,47.30
2023-05-10T06:22:43.400Z,47.76
2023-05-10T06:28:09.217Z,47.72
2023-05-10T06:33:34.954Z,47.18
2023-05-10T06:39:00.697Z,46.97
2023-05-10T06:44:26.779Z,47.29
2023-05-10T06:49:52.581Z,46.42
2023-05-10T06:55:18.651Z,46.23
2023-05-10T07:00:43.924Z,46.05
2023-05-10T07:06:15.679Z,45.52
2023-05-10T07:11:47.951Z,45.39
2023-05-10T07:17:13.706Z,45.36
2023-05-10T07:22:39.562Z,45.19
2023-05-10T07:28:05.326Z,44.83
2023-05-10T07:33:32.255Z,44.86
2023-05-10T07:38:58.153Z,44.80
2023-05-10T07:44:23.875Z,44.49
2023-05-10T07:49:49.904Z,44.13
2023-05-10T07:55:15.878Z,44.01
2023-05-10T08:00:42.126Z,43.62
2023-05-10T08:06:06.473Z,43.24
2023-05-10T08:11:34.329Z,43.54
2023-05-10T08:17:01.540Z,43.15
2023-05-10T08:22:27.520Z,42.74
2023-05-10T08:27:53.379Z,42.17
2023-05-10T08:33:12.296Z,41.54
2023-05-10T08:38:39.081Z,41.43
2023-05-10T08:44:06.977Z,41.18
2023-05-10T08:49:37.490Z,40.79
2023-05-10T08:54:54.356Z,40.91
2023-05-10T09:00:20.718Z,40.54
2023-05-10T09:05:46.528Z,40.00
2023-05-10T09:11:12.610Z,40.01
2023-05-10T09:16:38.488Z,39.77
2023-05-10T09:22:03.132Z,39.20
2023-05-10T09:27:29.170Z,39.34
2023-05-10T09:32:52.060Z,38.88
2023-05-10T09:38:19.885Z,39.03
2023-05-10T09:43:45.865Z,38.90
2023-05-10T09:49:11.706Z,38.80
2023-05-10T09:54:38.217Z,38.66
2023-05-10T10:00:06.411Z,37.60
2023-05-10T10:05:34.776Z,38.06
2023-05-10T10:11:01.508Z,37.96
2023-05-10T10:16:29.541Z,37.14
2023-05-10T10:21:55.605Z,36.71
2023-05-10T10:27:29.060Z,37.11
2023-05-10T10:33:13.258Z,36.67
2023-05-10T10:38:46.494Z,36.29
2023-05-10T10:44:32.289Z,35.83
2023-05-10T10:50:09.611Z,36.24
2023-05-10T10:55:38.431Z,36.06
2023-05-10T11:01:04.265Z,35.97
2023-05-10T11:06:30.252Z,36.00
2023-05-10T11:11:57.280Z,35.59
2023-05-10T11:17:43.830Z,34.78
2023-05-10T11:23:16.344Z,35.46
2023-05-10T11:28:42.150Z,35.28
2023-05-10T11:34:09.466Z,34.58
2023-05-10T11:39:47.140Z,34.75
2023-05-10T11:45:13.353Z,34.76
2023-05-10T11:50:40.046Z,34.60
2023-05-10T11:56:06.040Z,35.18
2023-05-10T12:01:32.884Z,34.40
2023-05-10T12:07:02.650Z,33.92
2023-05-10T12:12:28.699Z,34.05
2023-05-10T12:17:54.774Z,33.99
2023-05-10T12:23:23.070Z,33.27
2023-05-10T12:28:53.914Z,33.39
2023-05-10T12:34:18.185Z,33.02
2023-05-10T12:39:44.709Z,33.08
2023-05-10T12:45:10.618Z,32.35
2023-05-10T12:50:36.717Z,32.25
2023-05-10T12:56:02.358Z,32.01
2023-05-10T13:01:29.076Z,31.59
2023-05-10T13:06:54.850Z,32.28
2023-05-10T13:12:20.827Z,31.88
2023-05-10T13:17:42.740Z,31.79
2023-05-10T13:23:03.544Z,31.23
2023-05-10T13:28:29.810Z,30.80
2023-05-10T13:33:55.650Z,31.03
2023-05-10T13:39:22.324Z,31.06
2023-05-10T13:44:48.041Z,30.82
2023-05-10T13:50:13.902Z,30.42
2023-05-10T13:55:39.867Z,30.18
2023-05-10T14:01:05.905Z,30.06
2023-05-10T14:06:31.899Z,30.44
2023-05-10T14:11:57.743Z,30.61
2023-05-10T14:17:23.673Z,30.95
2023-05-10T14:22:50.884Z,31.08
2023-05-10T14:28:16.940Z,31.08
2023-05-10T14:33:43.975Z,30.92
2023-05-10T14:39:09.821Z,30.21
2023-05-10T14:44:35.477Z,30.59
2023-05-10T14:50:01.290Z,30.65
2023-05-10T14:55:29.047Z,30.42
2023-05-10T15:00:55.017Z,30.50
2023-05-10T15:06:21.131Z,30.16
2023-05-10T15:11:47.046Z,30.18
2023-05-10T15:17:12.701Z,30.26
2023-05-10T15:22:38.551Z,30.54
2023-05-10T15:28:04.247Z,30.84
2023-05-10T15:33:30.134Z,30.42
2023-05-10T15:38:55.826Z,30.37
2023-05-10T15:44:21.893Z,30.38
2023-05-10T15:49:47.711Z,30.88
2023-05-10T15:55:13.653Z,30.83
2023-05-10T16:00:40.319Z,30.82
2023-05-10T16:06:06.497Z,31.27
2023-05-10T16:11:32.289Z,31.77
2023-05-10T16:16:58.277Z,32.35
2023-05-10T16:22:24.403Z,32.71
2023-05-10T16:27:50.463Z,32.89
2023-05-10T16:33:06.893Z,33.39
2023-05-10T16:38:32.595Z,33.68
2023-05-10T16:43:58.527Z,33.84
2023-05-10T16:49:26.123Z,34.00
2023-05-10T16:54:45.914Z,34.87
2023-05-10T17:00:14.496Z,38.36
2023-05-10T17:05:40.250Z,40.81
2023-05-10T17:11:06.521Z,42.29
2023-05-10T17:16:32.335Z,43.62
2023-05-10T17:21:58.362Z,44.63
2023-05-10T17:27:24.614Z,45.59
2023-05-10T17:32:50.334Z,46.47
2023-05-10T17:38:16.486Z,47.24
2023-05-10T17:43:43.153Z,48.03
2023-05-10T17:49:09.191Z,48.76
2023-05-10T17:54:35.034Z,49.40
2023-05-10T18:00:01.082Z,49.92
2023-05-10T18:05:28.095Z,50.59
2023-05-10T18:10:54.308Z,51.11
2023-05-10T18:16:13.572Z,51.44
2023-05-10T18:21:29.805Z,51.88
2023-05-10T18:26:55.518Z,52.38
2023-05-10T18:32:21.758Z,52.85
2023-05-10T18:37:47.457Z,53.06
2023-05-10T18:43:13.537Z,53.47
2023-05-10T18:48:39.273Z,53.74
2023-05-10T18:54:05.317Z,54.09
2023-05-10T18:59:32.267Z,54.29
2023-05-10T19:04:58.491Z,54.62
2023-05-10T19:10:24.774Z,55.09
2023-05-10T19:15:50.666Z,55.42
2023-05-10T19:21:17.628Z,55.84
2023-05-10T19:26:43.419Z,56.21
2023-05-10T19:32:09.274Z,56.50
2023-05-10T19:37:35.166Z,56.86
2023-05-10T19:43:01.130Z,57.41
2023-05-10T19:48:27.571Z,57.65
2023-05-10T19:53:54.032Z,57.96
2023-05-10T19:59:10.295Z,58.35
2023-05-10T20:04:36.283Z,58.80
2023-05-10T20:10:02.531Z,59.06
2023-05-10T20:15:30.210Z,59.39
2023-05-10T20:20:56.108Z,59.78
2023-05-10T20:26:22.332Z,60.09
2023-05-10T20:31:48.167Z,60.41
2023-05-10T20:37:12.767Z,60.87
2023-05-10T20:42:38.813Z,61.14
2023-05-10T20:48:04.673Z,61.53
2023-05-10T20:53:30.681Z,61.77
2023-05-10T20:58:56.315Z,62.10
2023-05-10T21:04:15.056Z,62.56
2023-05-10T21:09:40.727Z,62.85
2023-05-10T21:15:06.643Z,63.29
2023-05-10T21:20:34.180Z,63.32
2023-05-10T21:26:00.301Z,63.59
2023-05-10T21:31:26.154Z,63.67
2023-05-10T21:36:52.291Z,64.03
2023-05-10T21:42:17.983Z,64.35
2023-05-10T21:47:43.983Z,64.56
2023-05-10T21:53:09.692Z,64.64
2023-05-10T21:58:35.745Z,64.95
2023-05-10T22:04:01.430Z,65.21
2023-05-10T22:09:27.724Z,65.46
2023-05-10T22:15:06.486Z,65.60
2023-05-10T22:20:35.894Z,65.81
2023-05-10T22:26:01.589Z,66.38
2023-05-10T22:31:33.054Z,66.54
2023-05-10T22:36:57.614Z,66.65
2023-05-10T22:42:23.389Z,66.93
2023-05-10T22:47:49.272Z,67.24
2023-05-10T22:53:15.395Z,67.55
2023-05-10T22:58:41.353Z,67.88
2023-05-10T23:04:07.400Z,67.99
2023-05-10T23:09:33.203Z,68.35
2023-05-10T23:14:59.030Z,68.23
2023-05-10T23:20:25.545Z,68.35
2023-05-10T23:25:51.551Z,68.64
2023-05-10T23:31:18.848Z,68.94
2023-05-10T23:36:44.716Z,69.01
2023-05-10T23:42:02.017Z,68.94
2023-05-10T23:47:27.778Z,69.30
2023-05-10T23:52:53.638Z,69.23
2023-05-10T23:58:19.410Z,69.39
